Kekaha, HI (96752)

11:55 PM HST on April 27, 2017 (GMT -1000)
LizKauai | | Change Station

Elev 62 ft 21.96 °N, 159.67 °W | Updated 7 minutes ago

Mostly Cloudy
Mostly Cloudy
67.6 °F
Feels Like 67.6 °F
N
1.7
Wind Variable Wind from SSE

Today
High -- | Low -- °F
--% Chance of Precip.
Yesterday
High -- | Low -- °F
Precip. -- in
Pressure 30.05 in
Visibility 5.0 miles
Clouds Mostly Cloudy 1800 ft
Overcast 3000 ft
Dew Point 64 °F
Humidity 89%
Rainfall 0.00 in
Snow Depth Not available.
6:09 AM 7:03 PM
Waxing Crescent, 5% visible
SPECI PHLI 280943Z AUTO 25009KT 5SM -RA BR BKN018 OVC030 21/19 A3005 RMK AO2 RAE02B18 P0015 T02110194 TSNO
Pressure 30.05 in
Visibility 5.0 miles
Clouds Mostly Cloudy 1800 ft
Overcast 3000 ft
Dew Point 64 °F
Humidity 89%
Rainfall 0.00 in
Snow Depth Not available.
6:09 AM 7:03 PM
Waxing Crescent, 5% visible
SPECI PHLI 280943Z AUTO 25009KT 5SM -RA BR BKN018 OVC030 21/19 A3005 RMK AO2 RAE02B18 P0015 T02110194 TSNO

Get Severe Weather Alerts

Thanks for signing up!

Be on the lookout for a verification email in your inbox.

You'll start receiving the daily forecast at 8 AM.

×

10-Day Weather Forecast

Almanac

Astronomy

Apr. 27, 2017 Rise Set
Actual Time
Civil Twilight
Nautical Twilight
Astronomical Twilight
Moon
Length of Visible Light
Length of Day
Tomorrow will be .
, % of the Moon is Illuminated

Today's Extremes

State Highs State Lows

Community

WunderPhotos

WunderBlog® & News

Nearby

Air Quality

  Air Quality AQ Index Pollutant
Not available.

Snow Depth

Station Depth Elevation

Earthquake Activity

City Distance Mag. Time & Date
Minimum magnitude displayed is 2.5.

Coastal Water Temperatures

Place Temperature

Stations

Nearby Weather Stations

Station Location Temp. Windchill Dew Point Humidity Wind Precip. Elev Updated Type
                   

Watches & Warnings

There are currently no watches in effect.